Česky Dansk Deutsch English Español Suomi Français Magyar Italiano Nederlands norsk Polski Português svenska Türkçe

 

Het Weer

Moundou (Tjaad)

14:00, 21 augustus 2016 (GMT)

NWNNE
WE
SWSSE
Home            
Moundou Pala Sarh Bossangoa Maroua-Salak Meiganga Bouar Garoua Ngaoundere Yola Betare-Oya Ndjamena Bossembele Bokoro Maiduguri Berberati Batouri N'Dele Banyo Yoko Am-Timan Bangui Bol-Berim

Om een weerknop op uw website of weblog te plaatsen, copieer onderstaande code en plak die in uw pagina. In het eerste vakje staat HTML-code, in het tweede vakje UBB-code.


Add to Google

Details

Visibility:Greater than 10000 m, 10 km, 32800 ft, 6.2 miles
Clouds:Aufgelockert bewölkt at 4000 ft, 1219 m
Temperature:31°C, 88°F
Gefühlte Temperatur:35°C, 95°F
Dew-point:22°C, 72°F
Atmospheric pressure:1011 hPa, 758.3 mmHg, 29.85 inHg, 0.998 atm
Relative humidity:58.9 %
METAR:FTTD 211400Z 00000KT 9999 SCT040 31/22 Q1011

Snelkoppelingen

Actuele weersinformatie van de hele wereld. Voeg locaties toe met het plus (+) symbool. Deze snelkoppelingen kunnen worden toegevoegd aan Google.

Lid van de Technetium groep

website free tracking
StatCounter NetStat W3C Validator

17-10-2018 09:32:50
astro.technetium.be money.technetium.be phote.technetium.be tafeltennistafel.technetium.be www.ligfiets.net